createdAt,value
2023-03-23T15:58:44.135Z,100226.88
2023-03-23T16:01:31.579Z,100237.72
2023-03-23T16:04:07.877Z,100246.06
2023-03-23T16:06:35.738Z,100258.41
2023-03-23T16:09:04.534Z,100269.41
2023-03-23T16:11:33.647Z,100283.50
2023-03-23T16:14:01.928Z,100277.47
2023-03-23T16:16:34.594Z,100281.59
2023-03-23T16:19:02.192Z,100282.75
2023-03-23T16:21:29.094Z,100289.31
2023-03-23T16:23:57.058Z,100289.59
2023-03-23T16:26:25.112Z,100296.19
2023-03-23T16:29:06.083Z,100284.63
2023-03-23T16:31:41.741Z,100298.19
2023-03-23T16:34:10.275Z,100305.50
2023-03-23T16:36:41.229Z,100300.28
2023-03-23T16:39:12.371Z,100313.03
2023-03-23T16:41:39.324Z,100313.16
2023-03-23T16:44:07.066Z,100315.69
2023-03-23T16:46:33.824Z,100320.94
2023-03-23T16:49:00.610Z,100327.13
2023-03-23T16:51:27.602Z,100325.94
2023-03-23T16:53:54.402Z,100332.13
2023-03-23T16:56:21.191Z,100327.38
2023-03-23T16:58:48.293Z,100326.91
2023-03-23T17:01:16.122Z,100334.44
2023-03-23T17:03:43.929Z,100342.34
2023-03-23T17:06:11.204Z,100337.91
2023-03-23T17:08:38.068Z,100333.88
2023-03-23T17:11:05.044Z,100346.84
2023-03-23T17:13:31.729Z,100339.19
2023-03-23T17:16:01.094Z,100341.44
2023-03-23T17:18:30.175Z,100341.84
2023-03-23T17:20:57.118Z,100349.09
2023-03-23T17:23:24.492Z,100358.50
2023-03-23T17:25:51.780Z,100358.63
2023-03-23T17:28:20.422Z,100362.47
2023-03-23T17:30:48.508Z,100364.47
2023-03-23T17:33:15.468Z,100354.44
2023-03-23T17:35:43.075Z,100349.75
2023-03-23T17:38:10.059Z,100351.88
2023-03-23T17:40:37.051Z,100350.59
2023-03-23T17:43:04.295Z,100343.19
2023-03-23T17:45:34.091Z,100352.31
2023-03-23T17:48:01.413Z,100348.38
2023-03-23T17:50:28.795Z,100356.75
2023-03-23T17:52:58.016Z,100365.66
2023-03-23T17:55:25.456Z,100369.84
2023-03-23T17:57:53.213Z,100366.63
2023-03-23T18:00:22.195Z,100373.16
2023-03-23T18:02:49.419Z,100367.34
2023-03-23T18:05:17.433Z,100371.53
2023-03-23T18:07:46.717Z,100378.44
2023-03-23T18:10:29.285Z,100393.22
2023-03-23T18:12:56.805Z,100388.13
2023-03-23T18:15:28.115Z,100385.94
2023-03-23T18:17:56.953Z,100393.97
2023-03-23T18:20:23.840Z,100383.22
2023-03-23T18:22:54.202Z,100377.41
2023-03-23T18:28:04.510Z,100390.34
2023-03-23T18:30:34.036Z,100393.03
2023-03-23T18:33:01.291Z,100400.44
2023-03-23T18:35:28.048Z,100384.00
2023-03-23T18:37:54.864Z,100382.69
2023-03-23T18:40:21.970Z,100381.38
2023-03-23T18:42:49.163Z,100382.16
2023-03-23T18:45:16.109Z,100379.03
2023-03-23T18:47:43.547Z,100381.38
2023-03-23T18:50:13.887Z,100374.47
2023-03-23T18:52:45.379Z,100390.81
2023-03-23T18:55:12.130Z,100388.91
2023-03-23T18:57:41.777Z,100383.84
2023-03-23T19:00:10.058Z,100387.09
2023-03-23T19:02:39.569Z,100378.28
2023-03-23T19:05:07.702Z,100372.91
2023-03-23T19:07:35.249Z,100391.75
2023-03-23T19:10:01.989Z,100389.41
2023-03-23T19:12:28.687Z,100385.34
2023-03-23T19:14:55.568Z,100378.16
2023-03-23T19:17:23.464Z,100378.03
2023-03-23T19:19:50.130Z,100357.41
2023-03-23T19:22:17.206Z,100351.84
2023-03-23T19:24:43.984Z,100348.28
2023-03-23T19:27:11.100Z,100347.03
2023-03-23T19:29:37.954Z,100345.28
2023-03-23T19:32:05.053Z,100345.53
2023-03-23T19:34:32.460Z,100336.56
2023-03-23T19:37:05.527Z,100339.19
2023-03-23T19:39:33.994Z,100331.22
2023-03-23T19:42:00.895Z,100336.47
2023-03-23T19:44:28.873Z,100330.06
2023-03-23T19:46:56.271Z,100336.22
2023-03-23T19:49:24.566Z,100336.03
2023-03-23T19:51:52.647Z,100326.53
2023-03-23T19:54:36.545Z,100323.56
2023-03-23T19:57:03.787Z,100312.56
2023-03-23T19:59:30.610Z,100309.84
2023-03-23T20:01:57.574Z,100300.47
2023-03-23T20:04:24.991Z,100293.34
2023-03-23T20:06:53.768Z,100289.88
2023-03-23T20:09:20.699Z,100293.81
2023-03-23T20:11:47.475Z,100285.94
2023-03-23T20:14:14.157Z,100282.47
2023-03-23T20:16:40.841Z,100274.78
2023-03-23T20:19:08.756Z,100266.16
2023-03-23T20:21:35.486Z,100262.31
2023-03-23T20:24:02.234Z,100253.44
2023-03-23T20:26:37.373Z,100253.31
2023-03-23T20:29:04.788Z,100253.81
2023-03-23T20:31:41.770Z,100260.75
2023-03-23T20:34:11.896Z,100250.28
2023-03-23T20:36:43.652Z,100252.13
2023-03-23T20:39:15.216Z,100245.94
2023-03-23T20:41:43.652Z,100248.53
2023-03-23T20:44:16.120Z,100250.53
2023-03-23T20:46:44.206Z,100238.78
2023-03-23T20:49:11.509Z,100246.56
2023-03-23T20:51:40.221Z,100243.22
2023-03-23T20:54:07.576Z,100239.66
2023-03-23T20:56:34.912Z,100249.53
2023-03-23T20:59:02.455Z,100244.94
2023-03-23T21:01:29.869Z,100232.97
2023-03-23T21:03:57.927Z,100231.00
2023-03-23T21:06:28.495Z,100231.28
2023-03-23T21:08:57.040Z,100223.34
2023-03-23T21:11:25.607Z,100223.19
2023-03-23T21:13:52.646Z,100220.88
2023-03-23T21:16:21.422Z,100221.75
2023-03-23T21:18:48.246Z,100221.50
2023-03-23T21:21:18.341Z,100221.41
2023-03-23T21:23:47.575Z,100211.53
2023-03-23T21:26:17.208Z,100213.75
2023-03-23T21:28:45.132Z,100210.13
2023-03-23T21:31:12.693Z,100204.97
2023-03-23T21:33:39.858Z,100200.78
2023-03-23T21:36:07.583Z,100200.78
2023-03-23T21:38:34.444Z,100191.78
2023-03-23T21:41:09.742Z,100182.28
2023-03-23T21:43:37.137Z,100188.94
2023-03-23T21:46:06.031Z,100186.72
2023-03-23T21:48:35.743Z,100183.50
2023-03-23T21:51:07.834Z,100184.41
2023-03-23T21:53:37.385Z,100180.94
2023-03-23T21:56:06.602Z,100186.94
2023-03-23T21:58:33.847Z,100187.81
2023-03-23T22:01:01.283Z,100181.69
2023-03-23T22:03:32.610Z,100177.59
2023-03-23T22:06:09.133Z,100169.06
2023-03-23T22:08:37.463Z,100168.44
2023-03-23T22:11:20.295Z,100162.31
2023-03-23T22:13:49.222Z,100148.72
2023-03-23T22:16:18.293Z,100145.75
2023-03-23T22:18:47.707Z,100150.22
2023-03-23T22:21:16.427Z,100132.81
2023-03-23T22:23:44.532Z,100121.09
2023-03-23T22:26:16.555Z,100120.84
2023-03-23T22:28:45.767Z,100107.16
2023-03-23T22:31:17.574Z,100101.38
2023-03-23T22:33:46.158Z,100095.22
2023-03-23T22:36:13.136Z,100090.16
2023-03-23T22:38:43.142Z,100080.16
2023-03-23T22:41:15.954Z,100066.94
2023-03-23T22:43:42.715Z,100061.78
2023-03-23T22:46:09.453Z,100067.38
2023-03-23T22:48:36.630Z,100060.53
2023-03-23T22:51:03.832Z,100052.56
2023-03-23T22:53:31.292Z,100045.78
2023-03-23T22:55:58.658Z,100037.53
2023-03-23T22:58:27.286Z,100022.81
2023-03-23T23:01:04.297Z,100010.13
2023-03-23T23:03:32.876Z,99999.28
2023-03-23T23:06:00.762Z,99998.84
2023-03-23T23:08:30.288Z,99987.34
2023-03-23T23:10:59.186Z,99986.72
2023-03-23T23:13:26.660Z,99980.28
2023-03-23T23:15:56.907Z,99972.63
2023-03-23T23:18:25.414Z,99970.50
2023-03-23T23:20:56.790Z,99949.91
2023-03-23T23:23:24.758Z,99945.09
2023-03-23T23:25:52.229Z,99934.38
2023-03-23T23:28:20.326Z,99937.66
2023-03-23T23:30:48.177Z,99938.66
2023-03-23T23:33:15.530Z,99926.59
2023-03-23T23:35:42.665Z,99907.28
2023-03-23T23:38:10.562Z,99903.53
2023-03-23T23:40:37.720Z,99880.94
2023-03-23T23:43:05.496Z,99871.00
2023-03-23T23:45:32.462Z,99877.13
2023-03-23T23:47:59.931Z,99872.09
2023-03-23T23:50:27.406Z,99855.16
2023-03-23T23:52:54.442Z,99847.38
2023-03-23T23:55:21.985Z,99854.34
2023-03-23T23:57:49.677Z,99845.00
